Dades meteomassalio
Diari Summary for Octubre 5, 2017 Units:  English    Metric   Both
« Previous Day
Next Day »
Diari Semanal Mensual Anual Personalitzat
  Maxima: Minima: Mijana:
Temperatura: TemperatureC °F 9.4 °F 18.4 °F
Rosada: DewpointC °F 6.8 °F 11.3 °F
Humitat: Humidity % 35 % 67 %
Velocitat del vent: WindSpeedKMH mph 0.0 mph 6.3 mph
Racha vent: WindSpeedGustKMH mph - -
Vent:- - WSW
Pressio: PressurehPa in 1019.9 in -
Pluja: 0.0 in    
Historical Graphs
 
 
Tabular Data for Octubre 5, 2017
Time Temperature Dew Point Pressure Wind Wind Speed Wind Gust Humidity Rainfall Rate (Hourly) solar Conditions
TemperatureC °F DewpointC °F PressurehPa in Calm     Humidity % HourlyPrecipMM in SolarRadiationWatts/m^2 W/m2 Conditions
00:01 14.4 °F 11.8 °F 1025.3 in Calm     84 % 0.0 in 0.0 W/m2 CLR
00:06 13.9 °F 11.2 °F 1025.3 in Calm     84 % 0.0 in 0.0 W/m2 CLR
00:11 13.9 °F 11.2 °F 1025.3 in Calm     84 % 0.0 in 0.0 W/m2 CLR
00:16 13.9 °F 11.2 °F 1025.3 in Calm     84 % 0.0 in 0.0 W/m2 CLR
00:21 13.9 °F 11.2 °F 1025.3 in Calm     84 % 0.0 in 0.0 W/m2 CLR
00:31 13.3 °F 10.5 °F 1024.9 in Calm     83 % 0.0 in 0.0 W/m2 CLR
00:36 13.3 °F 10.3 °F 1024.9 in Calm     82 % 0.0 in 0.0 W/m2 CLR
00:41 13.3 °F 10.7 °F 1024.9 in Calm     84 % 0.0 in 0.0 W/m2 CLR
00:46 13.3 °F 10.7 °F 1024.9 in Calm     84 % 0.0 in 0.0 W/m2 CLR
00:51 13.3 °F 10.7 °F 1024.9 in Calm     84 % 0.0 in 0.0 W/m2 CLR
00:56 13.3 °F 10.7 °F 1024.9 in Calm     84 % 0.0 in 0.0 W/m2 CLR
01:01 13.3 °F 10.9 °F 1024.9 in Calm     85 % 0.0 in 0.0 W/m2 CLR
01:06 13.3 °F 10.9 °F 1024.9 in Calm     85 % 0.0 in 0.0 W/m2 CLR
01:16 13.3 °F 10.9 °F 1024.9 in Calm     85 % 0.0 in 0.0 W/m2 CLR
01:21 13.3 °F 10.9 °F 1024.9 in Calm     85 % 0.0 in 0.0 W/m2 CLR
01:26 12.8 °F 10.3 °F 1025.3 in Calm     85 % 0.0 in 0.0 W/m2 CLR
01:31 12.8 °F 10.3 °F 1025.3 in Calm     85 % 0.0 in 0.0 W/m2 CLR
01:36 12.8 °F 10.5 °F 1025.3 in Calm     86 % 0.0 in 0.0 W/m2 CLR
01:41 12.8 °F 10.5 °F 1025.3 in Calm     86 % 0.0 in 0.0 W/m2 CLR
01:46 13.3 °F 11.2 °F 1024.9 in Calm     87 % 0.0 in 0.0 W/m2 CLR
01:51 12.8 °F 10.7 °F 1025.3 in Calm     87 % 0.0 in 0.0 W/m2 CLR
01:56 12.8 °F 10.8 °F 1025.3 in Calm     88 % 0.0 in 0.0 W/m2 CLR
02:01 12.8 °F 10.7 °F 1024.9 in Calm     87 % 0.0 in 0.0 W/m2 CLR
02:06 12.8 °F 10.7 °F 1024.9 in Calm     87 % 0.0 in 0.0 W/m2 CLR
02:11 12.8 °F 10.7 °F 1024.9 in Calm     87 % 0.0 in 0.0 W/m2 CLR
02:16 12.2 °F 10.1 °F 1024.9 in Calm     87 % 0.0 in 0.0 W/m2 CLR
02:21 12.2 °F 10.1 °F 1024.9 in Calm     87 % 0.0 in 0.0 W/m2 CLR
02:26 12.2 °F 10.3 °F 1024.9 in Calm     88 % 0.0 in 0.0 W/m2 CLR
02:31 12.2 °F 10.3 °F 1024.9 in Calm     88 % 0.0 in 0.0 W/m2 CLR
02:36 12.2 °F 10.3 °F 1024.9 in Calm     88 % 0.0 in 0.0 W/m2 CLR
02:41 12.2 °F 10.3 °F 1025.3 in Calm     88 % 0.0 in 0.0 W/m2 CLR
02:46 12.2 °F 10.3 °F 1024.9 in Calm     88 % 0.0 in 0.0 W/m2 CLR
02:51 12.2 °F 10.3 °F 1024.9 in Calm     88 % 0.0 in 0.0 W/m2 CLR
02:56 12.2 °F 10.3 °F 1024.9 in Calm     88 % 0.0 in 0.0 W/m2 CLR
03:06 12.2 °F 10.3 °F 1024.9 in Calm     88 % 0.0 in 0.0 W/m2 CLR
03:11 12.2 °F 10.4 °F 1024.9 in Calm     89 % 0.0 in 0.0 W/m2 CLR
03:16 11.7 °F 9.9 °F 1024.9 in Calm     89 % 0.0 in 0.0 W/m2 CLR
03:21 11.7 °F 9.9 °F 1024.6 in Calm     89 % 0.0 in 0.0 W/m2 CLR
03:26 11.7 °F 9.9 °F 1024.6 in Calm     89 % 0.0 in 0.0 W/m2 CLR
03:32 11.7 °F 9.9 °F 1024.6 in Calm     89 % 0.0 in 0.0 W/m2 CLR
03:37 11.7 °F 9.9 °F 1024.6 in Calm     89 % 0.0 in 0.0 W/m2 CLR
03:42 11.1 °F 9.4 °F 1024.6 in Calm     89 % 0.0 in 0.0 W/m2 CLR
03:47 11.1 °F 9.4 °F 1024.6 in Calm     89 % 0.0 in 0.0 W/m2 CLR
03:52 11.1 °F 9.4 °F 1024.6 in Calm     89 % 0.0 in 0.0 W/m2 CLR
03:57 11.1 °F 9.4 °F 1024.6 in Calm     89 % 0.0 in 0.0 W/m2 CLR
04:02 11.1 °F 9.4 °F 1024.3 in Calm     89 % 0.0 in 0.0 W/m2 CLR
04:07 11.1 °F 9.4 °F 1024.3 in Calm     89 % 0.0 in 0.0 W/m2 CLR
04:12 11.1 °F 9.4 °F 1024.3 in Calm     89 % 0.0 in 0.0 W/m2 CLR
04:13 11.1 °F 9.4 °F 1024.3 in Calm     89 % 0.0 in 0.0 W/m2 CLR
04:18 11.1 °F 9.4 °F 1024.3 in Calm     89 % 0.0 in 0.0 W/m2 CLR
04:23 11.1 °F 9.4 °F 1024.3 in Calm     89 % 0.0 in 0.0 W/m2 CLR
04:28 11.1 °F 9.6 °F 1024.3 in Calm     90 % 0.0 in 0.0 W/m2 CLR
04:33 11.1 °F 9.6 °F 1024.3 in Calm     90 % 0.0 in 0.0 W/m2 CLR
04:38 11.1 °F 9.6 °F 1024.3 in Calm     90 % 0.0 in 0.0 W/m2 CLR
04:43 10.6 °F 9.0 °F 1024.3 in Calm     90 % 0.0 in 0.0 W/m2 CLR
04:48 10.6 °F 9.0 °F 1024.3 in Calm     90 % 0.0 in 0.0 W/m2 CLR
04:53 10.6 °F 9.0 °F 1024.3 in Calm     90 % 0.0 in 0.0 W/m2 CLR
04:58 10.6 °F 9.0 °F 1023.9 in Calm     90 % 0.0 in 0.0 W/m2 CLR
05:03 10.6 °F 9.0 °F 1023.9 in Calm     90 % 0.0 in 0.0 W/m2 CLR
05:08 10.6 °F 9.2 °F 1023.9 in Calm     91 % 0.0 in 0.0 W/m2 CLR
05:13 10.6 °F 9.2 °F 1023.9 in Calm     91 % 0.0 in 0.0 W/m2 CLR
05:18 10.6 °F 9.2 °F 1023.9 in Calm     91 % 0.0 in 0.0 W/m2 CLR
05:21 10.6 °F 9.2 °F 1023.9 in Calm     91 % 0.0 in 0.0 W/m2 CLR
05:23 10.6 °F 9.2 °F 1023.9 in Calm     91 % 0.0 in 0.0 W/m2 CLR
05:26 10.6 °F 9.2 °F 1023.9 in Calm     91 % 0.0 in 0.0 W/m2 CLR
05:31 10.6 °F 9.2 °F 1023.9 in Calm     91 % 0.0 in 0.0 W/m2 CLR
05:36 10.6 °F 9.2 °F 1023.9 in Calm     91 % 0.0 in 0.0 W/m2 CLR
05:46 10.6 °F 9.2 °F 1023.9 in Calm     91 % 0.0 in 0.0 W/m2 CLR
05:51 10.6 °F 9.2 °F 1023.9 in Calm     91 % 0.0 in 0.0 W/m2 CLR
05:56 10.6 °F 9.2 °F 1023.9 in Calm     91 % 0.0 in 0.0 W/m2 CLR
06:01 10.0 °F 8.6 °F 1023.9 in Calm     91 % 0.0 in 0.0 W/m2 CLR
06:06 10.6 °F 9.2 °F 1023.9 in Calm     91 % 0.0 in 0.0 W/m2 CLR
06:11 10.6 °F 9.2 °F 1024.3 in Calm     91 % 0.0 in 0.0 W/m2 CLR
06:16 10.6 °F 9.2 °F 1024.3 in Calm     91 % 0.0 in 0.0 W/m2 CLR
06:21 10.6 °F 9.2 °F 1024.3 in Calm     91 % 0.0 in 0.0 W/m2 CLR
06:26 10.0 °F 8.6 °F 1024.3 in Calm     91 % 0.0 in 0.0 W/m2 CLR
06:31 10.6 °F 9.2 °F 1024.3 in Calm     91 % 0.0 in 0.0 W/m2 CLR
06:36 10.0 °F 8.6 °F 1024.3 in Calm     91 % 0.0 in 0.0 W/m2 CLR
06:41 10.0 °F 8.6 °F 1024.3 in Calm     91 % 0.0 in 0.0 W/m2 CLR
06:46 10.0 °F 8.6 °F 1024.3 in Calm     91 % 0.0 in 0.0 W/m2 CLR
06:56 10.0 °F 8.6 °F 1024.3 in Calm     91 % 0.0 in 0.0 W/m2 CLR
07:06 10.0 °F 8.6 °F 1024.3 in Calm     91 % 0.0 in 0.0 W/m2 CLR
07:11 9.4 °F 8.1 °F 1024.6 in Calm     91 % 0.0 in 0.0 W/m2 CLR
07:16 9.4 °F 8.1 °F 1024.3 in Calm     91 % 0.0 in 0.0 W/m2 CLR
07:21 9.4 °F 8.1 °F 1024.3 in Calm     91 % 0.0 in 0.0 W/m2 CLR
07:26 9.4 °F 8.1 °F 1024.3 in Calm     91 % 0.0 in 0.0 W/m2 CLR
07:31 9.4 °F 8.1 °F 1024.6 in Calm     91 % 0.0 in 0.0 W/m2 CLR
07:36 9.4 °F 8.1 °F 1024.3 in Calm     91 % 0.0 in 0.0 W/m2 CLR
07:41 9.4 °F 8.1 °F 1024.6 in Calm     91 % 0.0 in 0.0 W/m2 CLR
07:46 9.4 °F 8.2 °F 1024.6 in Calm     92 % 0.0 in 0.0 W/m2 CLR
07:51 9.4 °F 8.2 °F 1024.3 in Calm     92 % 0.0 in 0.0 W/m2 CLR
07:56 9.4 °F 8.2 °F 1024.3 in Calm     92 % 0.0 in 0.0 W/m2 CLR
08:01 9.4 °F 8.2 °F 1024.3 in Calm     92 % 0.0 in 5.0 W/m2 OVC
08:06 9.4 °F 8.2 °F 1024.3 in Calm     92 % 0.0 in 7.0 W/m2 BKN
08:11 9.4 °F 8.2 °F 1024.3 in Calm     92 % 0.0 in 11.0 W/m2 BKN
08:16 9.4 °F 8.2 °F 1024.3 in Calm     92 % 0.0 in 12.0 W/m2 BKN
08:21 9.4 °F 8.1 °F 1024.3 in Calm     91 % 0.0 in 18.0 W/m2 BKN
08:26 9.4 °F 8.2 °F 1024.6 in Calm     92 % 0.0 in 21.0 W/m2 BKN
08:31 10.0 °F 8.8 °F 1024.6 in Calm     92 % 0.0 in 23.0 W/m2 BKN
08:36 10.0 °F 8.8 °F 1024.6 in Calm     92 % 0.0 in 32.0 W/m2 BKN
08:41 10.0 °F 8.8 °F 1024.6 in Calm     92 % 0.0 in 35.0 W/m2 BKN
08:46 10.6 °F 9.3 °F 1024.6 in Calm     92 % 0.0 in 40.0 W/m2 BKN
08:56 10.6 °F 9.2 °F 1024.6 in Calm     91 % 0.0 in 46.0 W/m2 SCT
09:01 11.1 °F 9.7 °F 1024.6 in Calm     91 % 0.0 in 58.0 W/m2 SCT
09:06 11.1 °F 9.7 °F 1024.6 in Calm     91 % 0.0 in 104.0 W/m2 SCT
09:11 11.1 °F 9.7 °F 1024.6 in Calm     91 % 0.0 in 121.0 W/m2 FEW
09:16 11.7 °F 10.2 °F 1024.6 in Calm     91 % 0.0 in 104.0 W/m2 CLR
09:21 11.7 °F 10.4 °F 1024.6 in Calm     92 % 0.0 in 148.0 W/m2 CLR
09:26 11.7 °F 10.2 °F 1024.6 in Calm     91 % 0.0 in 185.0 W/m2 CLR
09:31 12.2 °F 10.6 °F 1024.6 in Calm     90 % 0.0 in 200.0 W/m2 CLR
09:36 12.2 °F 10.4 °F 1024.6 in Calm     89 % 0.0 in 195.0 W/m2 CLR
09:41 12.8 °F 10.8 °F 1024.6 in Calm     88 % 0.0 in 211.0 W/m2 CLR
09:46 12.8 °F 10.3 °F 1024.3 in Calm     85 % 0.0 in 229.0 W/m2 CLR
09:51 12.8 °F 10.2 °F 1024.3 in Calm     84 % 0.0 in 255.0 W/m2 CLR
09:56 13.3 °F 10.7 °F 1024.6 in Calm     84 % 0.0 in 276.0 W/m2 CLR
10:01 13.9 °F 10.9 °F 1024.6 in Calm     82 % 0.0 in 281.0 W/m2 CLR
10:06 13.9 °F 10.7 °F 1024.6 in Calm     81 % 0.0 in 299.0 W/m2 CLR
10:11 14.4 °F 11.2 °F 1024.6 in Calm     81 % 0.0 in 325.0 W/m2 CLR
10:16 14.4 °F 11.1 °F 1024.6 in Calm     80 % 0.0 in 339.0 W/m2 CLR
10:21 15.0 °F 11.4 °F 1024.6 in Calm     79 % 0.0 in 350.0 W/m2 CLR
10:26 15.6 °F 11.7 °F 1024.6 in Calm     78 % 0.0 in 367.0 W/m2 CLR
10:31 16.7 °F 12.6 °F 1024.6 in Calm     77 % 0.0 in 385.0 W/m2 CLR
10:36 17.2 °F 12.7 °F 1024.3 in Calm     75 % 0.0 in 401.0 W/m2 CLR
10:46 18.3 °F 13.4 °F 1024.6 in Calm     73 % 0.0 in 425.0 W/m2 CLR
10:51 18.3 °F 13.6 °F 1024.6 in Calm     74 % 0.0 in 438.0 W/m2 CLR
10:56 18.9 °F 13.7 °F 1024.3 in Calm     72 % 0.0 in 452.0 W/m2 CLR
11:02 18.9 °F 13.7 °F 1024.3 in Calm     72 % 0.0 in 461.0 W/m2 CLR
11:07 19.4 °F 13.8 °F 1024.3 in Calm     70 % 0.0 in 475.0 W/m2 CLR
11:12 19.4 °F 13.4 °F 1024.3 in Calm     68 % 0.0 in 487.0 W/m2 CLR
11:17 20.0 °F 13.7 °F 1024.3 in Calm     67 % 0.0 in 499.0 W/m2 CLR
11:22 20.0 °F 13.4 °F 1024.3 in Calm     66 % 0.0 in 510.0 W/m2 CLR
11:27 20.6 °F 14.0 °F 1024.3 in Calm     66 % 0.0 in 520.0 W/m2 CLR
11:32 21.1 °F 13.8 °F 1024.3 in Calm     63 % 0.0 in 533.0 W/m2 CLR
11:37 21.7 °F 14.3 °F 1024.3 in Calm     63 % 0.0 in 545.0 W/m2 CLR
11:42 21.7 °F 14.3 °F 1024.3 in Calm     63 % 0.0 in 554.0 W/m2 CLR
11:47 21.7 °F 14.1 °F 1024.3 in NNW 7.4 mph 7.4 mph 62 % 0.0 in 564.0 W/m2 CLR
11:52 22.2 °F 14.6 °F 1024.3 in NNW 1.9 mph 1.9 mph 62 % 0.0 in 573.0 W/m2 CLR
11:57 22.2 °F 14.6 °F 1024.3 in Calm     62 % 0.0 in 580.0 W/m2 CLR
12:02 22.8 °F 14.9 °F 1024.3 in Calm     61 % 0.0 in 591.0 W/m2 CLR
12:12 23.3 °F 15.1 °F 1023.9 in NNW 13.0 mph 13.0 mph 60 % 0.0 in 605.0 W/m2 CLR
12:17 23.9 °F 15.4 °F 1023.9 in West 11.1 mph 11.1 mph 59 % 0.0 in 612.0 W/m2 CLR
12:22 23.9 °F 15.1 °F 1023.9 in South 7.4 mph 7.4 mph 58 % 0.0 in 619.0 W/m2 CLR
12:27 24.4 °F 15.7 °F 1023.9 in Calm     58 % 0.0 in 624.0 W/m2 CLR
12:32 24.4 °F 15.7 °F 1023.9 in WNW 5.6 mph 5.6 mph 58 % 0.0 in 628.0 W/m2 CLR
12:37 24.4 °F 15.1 °F 1023.9 in South 9.3 mph 9.3 mph 56 % 0.0 in 638.0 W/m2 CLR
12:42 24.4 °F 15.4 °F 1023.9 in West 12.9 mph 12.9 mph 57 % 0.0 in 643.0 W/m2 CLR
12:47 24.4 °F 15.1 °F 1023.9 in West 6.4 mph 6.4 mph 56 % 0.0 in 649.0 W/m2 CLR
12:52 25.0 °F 15.6 °F 1023.9 in Calm     56 % 0.0 in 652.0 W/m2 CLR
12:57 25.6 °F 16.1 °F 1023.9 in Calm     56 % 0.0 in 657.0 W/m2 CLR
13:02 25.6 °F 16.1 °F 1023.6 in Calm     56 % 0.0 in 664.0 W/m2 CLR
13:07 25.6 °F 15.8 °F 1023.6 in West 7.4 mph 7.4 mph 55 % 0.0 in 666.0 W/m2 CLR
13:12 25.6 °F 16.1 °F 1023.6 in Calm     56 % 0.0 in 671.0 W/m2 CLR
13:17 25.6 °F 15.8 °F 1023.6 in West 11.3 mph 11.3 mph 55 % 0.0 in 673.0 W/m2 CLR
13:22 25.6 °F 15.6 °F 1023.6 in West 11.1 mph 11.1 mph 54 % 0.0 in 675.0 W/m2 CLR
13:27 25.6 °F 15.6 °F 1023.2 in NW 7.4 mph 7.4 mph 54 % 0.0 in 675.0 W/m2 CLR
13:32 25.6 °F 15.3 °F 1023.2 in West 9.3 mph 9.3 mph 53 % 0.0 in 679.0 W/m2 CLR
13:37 25.6 °F 15.3 °F 1023.2 in West 9.3 mph 9.3 mph 53 % 0.0 in 680.0 W/m2 CLR
13:42 26.1 °F 15.8 °F 1023.2 in West 16.7 mph 16.7 mph 53 % 0.0 in 679.0 W/m2 CLR
13:47 25.6 °F 14.7 °F 1022.9 in WSW 14.8 mph 14.8 mph 51 % 0.0 in 682.0 W/m2 CLR
13:52 26.1 °F 15.5 °F 1022.9 in WNW 7.4 mph 7.4 mph 52 % 0.0 in 682.0 W/m2 CLR
13:57 26.7 °F 16.0 °F 1022.9 in West 18.5 mph 18.5 mph 52 % 0.0 in 682.0 W/m2 CLR
14:02 26.1 °F 15.5 °F 1022.6 in NW 16.7 mph 16.7 mph 52 % 0.0 in 682.0 W/m2 CLR
14:07 26.1 °F 14.9 °F 1022.6 in WSW 14.5 mph 14.5 mph 50 % 0.0 in 682.0 W/m2 CLR
14:12 26.1 °F 14.6 °F 1022.6 in West 18.5 mph 18.5 mph 49 % 0.0 in 680.0 W/m2 CLR
14:17 26.7 °F 15.1 °F 1022.6 in West 14.8 mph 14.8 mph 49 % 0.0 in 677.0 W/m2 CLR
14:22 27.2 °F 15.6 °F 1022.2 in SW 13.0 mph 13.0 mph 49 % 0.0 in 675.0 W/m2 CLR
14:27 27.2 °F 15.6 °F 1022.2 in WNW 11.1 mph 11.1 mph 49 % 0.0 in 671.0 W/m2 CLR
14:32 26.7 °F 15.1 °F 1022.2 in WSW 13.0 mph 13.0 mph 49 % 0.0 in 668.0 W/m2 CLR
14:37 26.7 °F 15.1 °F 1022.2 in West 14.8 mph 14.8 mph 49 % 0.0 in 663.0 W/m2 CLR
14:42 26.7 °F 14.7 °F 1021.9 in WNW 16.7 mph 16.7 mph 48 % 0.0 in 659.0 W/m2 CLR
14:47 26.7 °F 14.7 °F 1021.9 in West 9.7 mph 9.7 mph 48 % 0.0 in 656.0 W/m2 CLR
14:57 27.2 °F 14.9 °F 1021.9 in SW 11.1 mph 11.1 mph 47 % 0.0 in 645.0 W/m2 CLR
15:02 26.7 °F 14.1 °F 1021.6 in WNW 16.7 mph 16.7 mph 46 % 0.0 in 638.0 W/m2 CLR
15:07 26.7 °F 14.4 °F 1021.6 in WNW 8.0 mph 8.0 mph 47 % 0.0 in 635.0 W/m2 CLR
15:12 27.2 °F 14.3 °F 1021.6 in WNW 24.1 mph 24.1 mph 45 % 0.0 in 628.0 W/m2 CLR
15:17 27.2 °F 14.3 °F 1021.6 in WSW 11.1 mph 11.1 mph 45 % 0.0 in 622.0 W/m2 CLR
15:18 27.2 °F 14.3 °F 1021.6 in West 1.9 mph   45 % 0.0 in 621.0 W/m2 CLR
15:23 27.2 °F 14.3 °F 1021.6 in West 16.7 mph 16.7 mph 45 % 0.0 in 619.0 W/m2 CLR
15:28 27.2 °F 14.3 °F 1021.2 in WNW 11.1 mph 11.1 mph 45 % 0.0 in 613.0 W/m2 CLR
15:33 27.2 °F 13.9 °F 1021.2 in NNW 3.7 mph   44 % 0.0 in 605.0 W/m2 CLR
15:38 27.2 °F 13.9 °F 1021.2 in SSW 13.0 mph 13.0 mph 44 % 0.0 in 594.0 W/m2 CLR
15:43 27.8 °F 14.4 °F 1021.2 in Calm     44 % 0.0 in 589.0 W/m2 CLR
15:48 27.8 °F 14.1 °F 1020.9 in West 12.9 mph 12.9 mph 43 % 0.0 in 582.0 W/m2 CLR
15:53 28.3 °F 14.6 °F 1021.2 in West 1.6 mph 1.6 mph 43 % 0.0 in 568.0 W/m2 CLR
15:58 28.3 °F 14.6 °F 1020.9 in West 13.0 mph 13.0 mph 43 % 0.0 in 561.0 W/m2 CLR
16:03 27.8 °F 13.7 °F 1020.9 in WNW 11.3 mph 11.3 mph 42 % 0.0 in 548.0 W/m2 CLR
16:08 27.8 °F 13.7 °F 1020.9 in WSW 16.7 mph 16.7 mph 42 % 0.0 in 540.0 W/m2 CLR
16:13 28.3 °F 13.8 °F 1020.9 in SW 14.8 mph 14.8 mph 41 % 0.0 in 529.0 W/m2 CLR
16:18 28.9 °F 14.7 °F 1020.9 in WSW 14.5 mph 14.5 mph 42 % 0.0 in 515.0 W/m2 CLR
16:23 28.3 °F 14.2 °F 1020.5 in Calm     42 % 0.0 in 501.0 W/m2 CLR
16:28 28.3 °F 13.8 °F 1020.5 in SW 6.4 mph 6.4 mph 41 % 0.0 in 490.0 W/m2 CLR
16:33 28.3 °F 13.8 °F 1020.5 in WSW 7.4 mph 7.4 mph 41 % 0.0 in 480.0 W/m2 CLR
16:38 28.3 °F 13.8 °F 1020.5 in West 13.0 mph 13.0 mph 41 % 0.0 in 464.0 W/m2 CLR
16:43 28.3 °F 13.8 °F 1020.5 in WNW 5.6 mph 5.6 mph 41 % 0.0 in 454.0 W/m2 CLR
16:48 27.8 °F 13.3 °F 1020.5 in West 12.9 mph 12.9 mph 41 % 0.0 in 443.0 W/m2 CLR
16:53 27.8 °F 13.7 °F 1020.5 in WSW 14.5 mph 14.5 mph 42 % 0.0 in 427.0 W/m2 CLR
16:58 28.3 °F 14.2 °F 1020.5 in SSW 6.4 mph 6.4 mph 42 % 0.0 in 417.0 W/m2 CLR
17:03 28.3 °F 14.2 °F 1020.2 in WSW 16.7 mph 16.7 mph 42 % 0.0 in 401.0 W/m2 CLR
17:08 27.8 °F 12.9 °F 1020.2 in WSW 11.1 mph 11.1 mph 40 % 0.0 in 387.0 W/m2 CLR
17:13 27.8 °F 13.3 °F 1020.2 in WSW 11.1 mph 11.1 mph 41 % 0.0 in 374.0 W/m2 CLR
17:18 27.8 °F 12.9 °F 1020.2 in WSW 16.1 mph 16.1 mph 40 % 0.0 in 359.0 W/m2 CLR
17:23 27.8 °F 12.9 °F 1020.2 in West 9.3 mph 9.3 mph 40 % 0.0 in 343.0 W/m2 CLR
17:28 27.8 °F 12.6 °F 1020.2 in West 16.7 mph 16.7 mph 39 % 0.0 in 330.0 W/m2 CLR
17:33 28.3 °F 12.7 °F 1020.2 in West 9.3 mph 9.3 mph 38 % 0.0 in 316.0 W/m2 CLR
17:38 28.3 °F 12.7 °F 1020.2 in West 9.7 mph 9.7 mph 38 % 0.0 in 302.0 W/m2 CLR
17:43 27.8 °F 12.2 °F 1020.2 in West 14.8 mph 14.8 mph 38 % 0.0 in 292.0 W/m2 CLR
17:53 27.8 °F 11.3 °F 1019.9 in WSW 18.5 mph 18.5 mph 36 % 0.0 in 257.0 W/m2 CLR
17:58 27.2 °F 11.3 °F 1019.9 in West 14.8 mph 14.8 mph 37 % 0.0 in 239.0 W/m2 CLR
18:03 27.2 °F 11.7 °F 1019.9 in Calm     38 % 0.0 in 223.0 W/m2 CLR
18:08 27.2 °F 11.3 °F 1019.9 in Calm     37 % 0.0 in 200.0 W/m2 CLR
18:13 26.7 °F 10.8 °F 1019.9 in SW 5.6 mph   37 % 0.0 in 185.0 W/m2 CLR
18:18 26.7 °F 10.3 °F 1019.9 in WSW 11.3 mph 11.3 mph 36 % 0.0 in 167.0 W/m2 CLR
18:23 26.7 °F 10.3 °F 1019.9 in SW 9.3 mph 9.3 mph 36 % 0.0 in 151.0 W/m2 CLR
18:28 26.7 °F 10.3 °F 1019.9 in West 9.3 mph 9.3 mph 36 % 0.0 in 134.0 W/m2 CLR
18:33 26.7 °F 9.9 °F 1019.9 in WSW 20.4 mph 20.4 mph 35 % 0.0 in 114.0 W/m2 CLR
18:38 26.7 °F 10.3 °F 1019.9 in WSW 14.8 mph 14.8 mph 36 % 0.0 in 97.0 W/m2 CLR
18:43 26.7 °F 10.3 °F 1019.9 in Calm     36 % 0.0 in 83.0 W/m2 CLR
18:49 26.1 °F 9.9 °F 1019.9 in WSW 12.9 mph 12.9 mph 36 % 0.0 in 62.0 W/m2 SCT
18:54 25.6 °F 9.4 °F 1019.9 in WSW 9.3 mph   36 % 0.0 in 53.0 W/m2 SCT
18:59 25.0 °F 8.9 °F 1019.9 in West 16.7 mph 16.7 mph 36 % 0.0 in 42.0 W/m2 SCT
19:04 24.4 °F 8.4 °F 1019.9 in WSW 11.3 mph 11.3 mph 36 % 0.0 in 32.0 W/m2 BKN
19:09 24.4 °F 8.4 °F 1019.9 in SW 16.7 mph 16.7 mph 36 % 0.0 in 23.0 W/m2 BKN
19:14 24.4 °F 8.4 °F 1019.9 in WSW 5.6 mph 5.6 mph 36 % 0.0 in 16.0 W/m2 BKN
19:19 23.9 °F 8.3 °F 1019.9 in WSW 5.6 mph 5.6 mph 37 % 0.0 in 12.0 W/m2 BKN
19:24 23.9 °F 8.7 °F 1020.2 in WSW 9.3 mph 9.3 mph 38 % 0.0 in 11.0 W/m2 BKN
19:29 23.3 °F 8.6 °F 1020.2 in Calm     39 % 0.0 in 7.0 W/m2 BKN
19:34 22.2 °F 7.6 °F 1020.2 in Calm     39 % 0.0 in 5.0 W/m2 OVC
19:44 20.6 °F 6.8 °F 1019.9 in Calm     41 % 0.0 in 0.0 W/m2 OVC
19:49 20.6 °F 7.2 °F 1019.9 in Calm     42 % 0.0 in 0.0 W/m2 CLR
19:54 20.0 °F 7.1 °F 1019.9 in Calm     43 % 0.0 in 0.0 W/m2 CLR
19:59 20.0 °F 7.4 °F 1020.2 in Calm     44 % 0.0 in 0.0 W/m2 CLR
20:04 20.0 °F 7.4 °F 1020.2 in Calm     44 % 0.0 in 0.0 W/m2 CLR
20:09 20.0 °F 7.4 °F 1019.9 in Calm     44 % 0.0 in 0.0 W/m2 CLR
20:14 20.0 °F 7.7 °F 1020.2 in Calm   0.2 mph 45 % 0.0 in 0.0 W/m2 CLR
20:24 20.0 °F 7.7 °F 1020.2 in Calm     45 % 0.0 in 0.0 W/m2 CLR
20:29 20.0 °F 7.7 °F 1020.2 in Calm     45 % 0.0 in 0.0 W/m2 CLR
20:34 20.0 °F 8.0 °F 1020.2 in Calm     46 % 0.0 in 0.0 W/m2 CLR
20:39 20.0 °F 8.3 °F 1020.2 in Calm     47 % 0.0 in 0.0 W/m2 CLR
20:44 19.4 °F 8.2 °F 1020.2 in Calm     48 % 0.0 in 0.0 W/m2 CLR
20:49 19.4 °F 8.4 °F 1020.5 in Calm     49 % 0.0 in 0.0 W/m2 CLR
20:54 19.4 °F 8.4 °F 1020.5 in SSW 5.6 mph 5.6 mph 49 % 0.0 in 0.0 W/m2 CLR
20:59 19.4 °F 8.4 °F 1020.5 in SSW 1.6 mph 1.6 mph 49 % 0.0 in 0.0 W/m2 CLR
21:04 19.4 °F 9.3 °F 1020.5 in Calm     52 % 0.0 in 0.0 W/m2 CLR
21:14 18.9 °F 9.1 °F 1020.9 in SW 14.8 mph 14.8 mph 53 % 0.0 in 0.0 W/m2 CLR
21:19 18.9 °F 9.1 °F 1020.5 in SW 18.5 mph 18.5 mph 53 % 0.0 in 0.0 W/m2 CLR
21:24 18.9 °F 9.1 °F 1020.9 in WSW 14.8 mph 14.8 mph 53 % 0.0 in 0.0 W/m2 CLR
21:29 18.9 °F 9.4 °F 1020.9 in WSW 25.9 mph 25.9 mph 54 % 0.0 in 0.0 W/m2 CLR
21:34 20.0 °F 10.4 °F 1020.9 in WSW 22.2 mph 22.2 mph 54 % 0.0 in 0.0 W/m2 CLR
21:39 21.7 °F 11.9 °F 1020.9 in SW 27.8 mph 27.8 mph 54 % 0.0 in 0.0 W/m2 CLR
21:44 22.2 °F 12.7 °F 1020.9 in SW 22.2 mph 22.2 mph 55 % 0.0 in 0.0 W/m2 CLR
21:49 22.2 °F 12.7 °F 1021.2 in SW 18.5 mph 18.5 mph 55 % 0.0 in 0.0 W/m2 CLR
21:54 22.2 °F 13.0 °F 1021.2 in SW 18.5 mph 18.5 mph 56 % 0.0 in 0.0 W/m2 CLR
21:59 22.2 °F 13.3 °F 1021.2 in SW 25.9 mph 25.9 mph 57 % 0.0 in 0.0 W/m2 CLR
22:04 22.2 °F 13.6 °F 1021.2 in WSW 33.3 mph 33.3 mph 58 % 0.0 in 0.0 W/m2 CLR
22:09 22.2 °F 13.6 °F 1021.2 in WSW 42.6 mph 42.6 mph 58 % 0.0 in 0.0 W/m2 CLR
22:14 22.2 °F 13.6 °F 1021.2 in WSW 33.3 mph 33.3 mph 58 % 0.0 in 0.0 W/m2 CLR
22:19 22.2 °F 13.6 °F 1021.2 in SW 31.5 mph 31.5 mph 58 % 0.0 in 0.0 W/m2 CLR
22:24 22.2 °F 13.8 °F 1021.2 in WSW 25.9 mph 25.9 mph 59 % 0.0 in 0.0 W/m2 CLR
22:29 22.2 °F 13.6 °F 1021.2 in SW 29.6 mph 29.6 mph 58 % 0.0 in 0.0 W/m2 CLR
22:39 21.7 °F 13.1 °F 1021.6 in WSW 25.9 mph 25.9 mph 58 % 0.0 in 0.0 W/m2 CLR
22:44 21.7 °F 13.3 °F 1021.6 in WSW 22.2 mph 22.2 mph 59 % 0.0 in 0.0 W/m2 CLR
22:49 21.1 °F 12.8 °F 1021.6 in SW 31.5 mph 31.5 mph 59 % 0.0 in 0.0 W/m2 CLR
22:59 21.1 °F 13.3 °F 1021.6 in SW 27.8 mph 27.8 mph 61 % 0.0 in 0.0 W/m2 CLR
23:04 21.1 °F 13.3 °F 1021.6 in SSW 22.2 mph 22.2 mph 61 % 0.0 in 0.0 W/m2 CLR
23:09 21.1 °F 13.3 °F 1021.6 in SSW 20.4 mph 20.4 mph 61 % 0.0 in 0.0 W/m2 CLR
23:14 21.1 °F 13.1 °F 1021.6 in SSW 24.1 mph 24.1 mph 60 % 0.0 in 0.0 W/m2 CLR
23:19 21.1 °F 13.1 °F 1021.6 in SSW 29.6 mph 29.6 mph 60 % 0.0 in 0.0 W/m2 CLR
23:24 20.6 °F 12.5 °F 1021.9 in SSW 20.4 mph 20.4 mph 60 % 0.0 in 0.0 W/m2 CLR
23:29 20.6 °F 12.5 °F 1021.9 in SSW 29.6 mph 29.6 mph 60 % 0.0 in 0.0 W/m2 CLR
23:34 20.6 °F 12.5 °F 1021.9 in SSW 25.7 mph 25.7 mph 60 % 0.0 in 0.0 W/m2 CLR
23:39 20.6 °F 12.5 °F 1021.6 in SSW 27.8 mph 27.8 mph 60 % 0.0 in 0.0 W/m2 CLR
23:44 20.6 °F 12.8 °F 1021.6 in SSW 27.8 mph 27.8 mph 61 % 0.0 in 0.0 W/m2 CLR
23:49 20.0 °F 12.2 °F 1021.6 in SSW 31.5 mph 31.5 mph 61 % 0.0 in 0.0 W/m2 CLR
23:54 20.0 °F 12.2 °F 1021.6 in SSW 27.8 mph 27.8 mph 61 % 0.0 in 0.0 W/m2 CLR
23:55 20.0 °F 12.2 °F 1021.6 in SSW 27.8 mph 27.8 mph 61 % 0.0 in 0.0 W/m2 CLR
Lo Temps de Massalio
Compliments of Weather Underground - 1.25 mb